Time;durP1;ratioP1;P1;durP2;ratioP2;P2;SDS_P1;SDS_P2;PMS_P1;PMS_P2;Temp;Humidity;BMP_temperature;BMP_pressure;BME280_temperature;BME280_humidity;BME280_pressure;Samples;Min_cycle;Max_cycle;Signal;HPM_P1;HPM_P2
2021/07/27 00:01:06;;;;;;;;;;;;;;;-144.99;87.42;52211.66;5027571;28;19967;-62
2021/07/27 00:03:32;;;;;;;;;;;;;;;-144.99;87.68;52256.50;5028278;28;19941;-63
2021/07/27 00:05:58;;;;;;;;;;;;;;;-144.99;87.71;52260.56;5027073;28;19936;-63
2021/07/27 00:08:25;;;;;;;;;;;;;;;-144.99;88.39;52223.88;5030550;28;19939;-63
2021/07/27 00:10:51;;;;;;;;;;;;;;;-144.99;88.78;52248.34;5026385;28;19925;-63
2021/07/27 00:13:19;;;;;;;;;;;;;;;-144.99;89.20;52215.75;5029797;28;19925;-63
2021/07/27 00:15:45;;;;;;;;;;;;;;;-144.99;89.79;52260.56;5029664;28;19959;-63
2021/07/27 00:18:12;;;;;;;;;;;;;;;-144.99;89.83;52240.19;5029395;28;19925;-63
2021/07/27 00:20:38;;;;;;;;;;;;;;;-144.99;89.74;52276.88;5029983;28;19972;-63
2021/07/27 00:23:04;;;;;;;;;;;;;;;-144.99;90.04;52244.28;5029985;28;19966;-63
2021/07/27 00:25:31;;;;;;;;;;;;;;;-144.99;90.13;52195.34;5030010;28;19925;-64
2021/07/27 00:27:57;;;;;;;;;;;;;;;-144.99;90.21;52264.66;5029768;28;19947;-62
2021/07/27 00:30:25;;;;;;;;;;;;;;;-144.99;90.55;52256.50;5029683;28;19944;-62
2021/07/27 00:32:52;;;;;;;;;;;;;;;-144.99;90.69;52248.34;5027273;28;19932;-61
2021/07/27 00:35:18;;;;;;;;;;;;;;;-144.99;90.97;52260.56;5026670;28;20387;-61
2021/07/27 00:37:46;;;;;;;;;;;;;;;-144.99;91.32;52258.53;5030212;28;20333;-61
2021/07/27 00:40:14;;;;;;;;;;;;;;;-144.99;91.09;52246.31;5030234;28;19971;-61
2021/07/27 00:42:44;;;;;;;;;;;;;;;-144.99;91.18;52280.97;5029439;28;20353;-61
2021/07/27 00:45:10;;;;;;;;;;;;;;;-144.99;90.96;52215.75;5029177;28;20055;-61
2021/07/27 00:47:38;;;;;;;;;;;;;;;-144.99;90.72;52252.44;5029397;28;19983;-61
2021/07/27 00:50:07;;;;;;;;;;;;;;;-144.99;90.83;52254.47;5021310;28;19926;-63
2021/07/27 00:52:33;;;;;;;;;;;;;;;-144.99;90.85;52252.44;5029339;28;20381;-60
2021/07/27 00:54:59;;;;;;;;;;;;;;;-144.99;90.84;52248.34;5030135;28;19925;-62
2021/07/27 00:57:26;;;;;;;;;;;;;;;-144.99;90.86;52256.50;5016968;28;19926;-60
2021/07/27 00:59:52;;;;;;;;;;;;;;;-144.99;91.52;52289.13;5028604;28;19944;-61
2021/07/27 01:02:19;;;;;;;;;;;;;;;-144.99;91.19;52236.13;5032840;28;20291;-62
2021/07/27 01:04:47;;;;;;;;;;;;;;;-144.99;91.10;52225.94;5030689;28;20291;-62
2021/07/27 01:07:13;;;;;;;;;;;;;;;-144.99;90.63;52250.38;5033350;28;19925;-62
2021/07/27 01:09:39;;;;;;;;;;;;;;;-144.99;90.83;52236.13;5033742;28;19932;-62
2021/07/27 01:12:06;;;;;;;;;;;;;;;-144.99;90.25;52232.03;5033643;28;19929;-61
2021/07/27 01:14:32;;;;;;;;;;;;;;;-144.99;89.92;52203.50;5030015;28;19941;-61
2021/07/27 01:16:59;;;;;;;;;;;;;;;-144.99;89.98;52248.34;5028379;28;20190;-62
2021/07/27 01:19:38;;;;;;;;;;;;;;;-144.99;90.05;52293.19;5032243;28;19929;-62
2021/07/27 01:38:57;;;;;;;;;;;;;;;-144.99;89.63;52236.13;5029718;28;20440;-63
2021/07/27 01:44:07;;;;;;;;;;;;;;;-144.99;89.39;52260.56;5027877;28;20553;-63
2021/07/27 01:46:35;;;;;;;;;;;;;;;-144.99;89.30;52289.13;5024989;28;19925;-63
2021/07/27 01:49:01;;;;;;;;;;;;;;;-144.99;89.56;52264.66;5027204;28;19962;-63
2021/07/27 01:51:31;;;;;;;;;;;;;;;-144.99;89.77;52234.09;5026851;28;19926;-62
2021/07/27 01:54:02;;;;;;;;;;;;;;;-144.99;90.08;52280.97;5032772;28;19933;-63
2021/07/27 01:56:28;;;;;;;;;;;;;;;-144.99;89.72;52297.25;5030192;28;19933;-64
2021/07/27 01:58:57;;;;;;;;;;;;;;;-144.99;90.07;52240.19;5031865;28;19955;-63
2021/07/27 02:01:25;;;;;;;;;;;;;;;-144.99;90.75;52260.56;5031800;28;20358;-62
2021/07/27 02:03:52;;;;;;;;;;;;;;;-144.99;90.95;52309.50;5026166;28;19925;-63
2021/07/27 02:06:18;;;;;;;;;;;;;;;-144.99;91.09;52223.88;5032035;28;20324;-61
2021/07/27 02:08:45;;;;;;;;;;;;;;;-144.99;91.40;52234.09;5032016;28;20326;-62
2021/07/27 02:11:13;;;;;;;;;;;;;;;-144.99;91.31;52256.50;5028537;28;19926;-66
2021/07/27 02:13:47;;;;;;;;;;;;;;;-144.99;91.33;52252.44;5031957;28;19925;-66
2021/07/27 02:16:14;;;;;;;;;;;;;;;-144.99;91.41;52219.81;5031975;28;19925;-65
2021/07/27 02:18:40;;;;;;;;;;;;;;;-144.99;91.83;52264.66;5031784;28;19925;-66
2021/07/27 02:21:06;;;;;;;;;;;;;;;-144.99;92.02;52244.28;5031668;28;19959;-65
2021/07/27 02:23:33;;;;;;;;;;;;;;;-144.99;92.26;52254.47;5031062;28;19940;-66
2021/07/27 02:25:59;;;;;;;;;;;;;;;-144.99;92.33;52227.97;5031560;28;19936;-65
2021/07/27 02:28:27;;;;;;;;;;;;;;;-144.99;92.56;52280.97;5024418;28;20066;-65
2021/07/27 02:30:55;;;;;;;;;;;;;;;-144.99;92.63;52232.03;5031978;28;19932;-61
2021/07/27 02:33:25;;;;;;;;;;;;;;;-144.99;92.97;52268.72;5031835;28;19929;-63
2021/07/27 02:35:52;;;;;;;;;;;;;;;-144.99;93.25;52240.19;5031836;28;19935;-60
2021/07/27 02:38:18;;;;;;;;;;;;;;;-144.99;93.27;52301.34;5031516;28;19994;-60
2021/07/27 02:40:45;;;;;;;;;;;;;;;-144.99;93.40;52252.44;5029639;28;19956;-60
2021/07/27 02:43:11;;;;;;;;;;;;;;;-144.99;93.13;52264.66;5032055;28;19928;-60
2021/07/27 02:45:39;;;;;;;;;;;;;;;-144.99;93.28;52252.44;5028977;28;19932;-59
2021/07/27 02:48:06;;;;;;;;;;;;;;;-144.99;93.57;52252.44;5032205;28;20023;-59
2021/07/27 02:50:45;;;;;;;;;;;;;;;-144.99;93.88;52248.34;5029734;28;19925;-59
2021/07/27 02:53:11;;;;;;;;;;;;;;;-144.99;93.96;52297.25;5031473;28;19964;-59
2021/07/27 02:55:40;;;;;;;;;;;;;;;-144.99;94.35;52248.34;5032163;28;20348;-60
2021/07/27 02:58:27;;;;;;;;;;;;;;;-144.99;94.54;52248.34;5026542;28;19959;-60
2021/07/27 03:00:55;;;;;;;;;;;;;;;-144.99;95.18;52276.88;5024808;28;19951;-60
2021/07/27 03:03:21;;;;;;;;;;;;;;;-144.99;95.22;52256.50;5025810;28;19955;-59
2021/07/27 03:05:47;;;;;;;;;;;;;;;-144.99;95.49;52248.34;5031862;28;19931;-59
2021/07/27 03:08:19;;;;;;;;;;;;;;;-144.99;95.83;52305.41;5028404;28;19931;-59
2021/07/27 03:10:45;;;;;;;;;;;;;;;-144.99;96.76;52256.50;5031053;28;19951;-59
2021/07/27 03:13:11;;;;;;;;;;;;;;;-144.99;96.75;52252.44;5031081;28;19925;-59
2021/07/27 03:15:38;;;;;;;;;;;;;;;-144.99;96.92;52260.56;5025634;28;19925;-59
2021/07/27 03:18:05;;;;;;;;;;;;;;;-144.99;96.98;52266.69;5031028;28;20433;-60
2021/07/27 03:20:32;;;;;;;;;;;;;;;-144.99;97.12;52260.56;5023025;28;19937;-64
2021/07/27 03:22:59;;;;;;;;;;;;;;;-144.99;97.10;52252.44;5023998;28;19925;-63
2021/07/27 03:25:26;;;;;;;;;;;;;;;-144.99;96.78;52276.88;5031135;28;20342;-63
2021/07/27 03:27:52;;;;;;;;;;;;;;;-144.99;96.71;52276.88;5030765;28;20113;-66
2021/07/27 03:30:19;;;;;;;;;;;;;;;-144.99;96.59;52280.97;5030909;28;20018;-65
2021/07/27 03:32:46;;;;;;;;;;;;;;;-144.99;96.89;52285.03;5030431;28;19929;-65
2021/07/27 03:35:15;;;;;;;;;;;;;;;-144.99;96.86;52268.72;5028808;28;19931;-65
2021/07/27 03:37:41;;;;;;;;;;;;;;;-144.99;96.59;52240.19;5030825;28;19925;-65
2021/07/27 03:40:08;;;;;;;;;;;;;;;-144.99;96.53;52236.13;5031139;28;20278;-65
2021/07/27 03:42:34;;;;;;;;;;;;;;;-144.99;96.61;52305.41;5030482;28;19936;-66
2021/07/27 03:45:01;;;;;;;;;;;;;;;-144.99;96.42;52276.88;5030834;28;19949;-65
2021/07/27 03:47:27;;;;;;;;;;;;;;;-144.99;96.33;52260.56;5030276;28;19929;-65
2021/07/27 03:49:54;;;;;;;;;;;;;;;-144.99;96.23;52252.44;5030371;28;19979;-65
2021/07/27 03:52:22;;;;;;;;;;;;;;;-144.99;96.03;52268.72;5030370;28;20019;-65
2021/07/27 03:54:49;;;;;;;;;;;;;;;-144.99;96.07;52244.28;5030442;28;20326;-65
2021/07/27 03:57:16;;;;;;;;;;;;;;;-144.99;96.16;52270.78;5029502;28;19932;-65
2021/07/27 03:59:42;;;;;;;;;;;;;;;-144.99;95.91;52240.19;5030614;28;19924;-66
2021/07/27 04:02:09;;;;;;;;;;;;;;;-144.99;95.92;52268.72;5029762;28;19929;-66
2021/07/27 04:04:35;;;;;;;;;;;;;;;-144.99;96.01;52276.88;5030412;28;19925;-66
2021/07/27 04:07:02;;;;;;;;;;;;;;;-144.99;95.84;52236.13;5027690;28;19947;-66
2021/07/27 04:09:29;;;;;;;;;;;;;;;-144.99;95.80;52268.72;5030817;28;19925;-66
2021/07/27 04:11:56;;;;;;;;;;;;;;;-144.99;95.96;52266.69;5031053;28;19959;-66
2021/07/27 04:14:22;;;;;;;;;;;;;;;-144.99;95.83;52211.66;5025202;28;20314;-66
2021/07/27 04:16:49;;;;;;;;;;;;;;;-144.99;95.74;52248.34;5029994;28;19940;-64
2021/07/27 04:19:15;;;;;;;;;;;;;;;-144.99;95.30;52258.53;5028482;28;19933;-63
2021/07/27 04:21:42;;;;;;;;;;;;;;;-144.99;95.25;52268.72;5023740;28;19925;-63
2021/07/27 04:24:08;;;;;;;;;;;;;;;-144.99;94.97;52232.03;5026570;28;19938;-63
2021/07/27 04:26:36;;;;;;;;;;;;;;;-144.99;95.00;52232.03;5029535;28;19937;-63
2021/07/27 04:29:02;;;;;;;;;;;;;;;-144.99;94.57;52223.88;5029231;28;19925;-63
2021/07/27 04:31:30;;;;;;;;;;;;;;;-144.99;94.50;52268.72;5029329;28;20074;-63
2021/07/27 04:33:56;;;;;;;;;;;;;;;-144.99;93.75;52219.81;5027062;28;19925;-63
2021/07/27 04:36:22;;;;;;;;;;;;;;;-144.99;93.63;52285.03;5029191;28;19925;-63
2021/07/27 04:38:49;;;;;;;;;;;;;;;-144.99;93.31;52234.09;5029729;28;19932;-63
2021/07/27 04:41:15;;;;;;;;;;;;;;;-144.99;93.29;52248.34;5028772;28;19929;-63
2021/07/27 04:43:43;;;;;;;;;;;;;;;-144.99;93.13;52227.97;5024251;28;20014;-63
2021/07/27 04:46:09;;;;;;;;;;;;;;;-144.99;93.08;52256.50;5022189;28;19932;-62
2021/07/27 04:48:37;;;;;;;;;;;;;;;-144.99;92.47;52219.81;5029428;28;20298;-63
2021/07/27 04:51:03;;;;;;;;;;;;;;;-144.99;92.05;52250.38;5029865;28;20408;-62
2021/07/27 04:53:33;;;;;;;;;;;;;;;-144.99;91.68;52248.34;5029960;28;19930;-62
2021/07/27 04:56:01;;;;;;;;;;;;;;;-144.99;91.39;52250.38;5028672;28;19925;-63
2021/07/27 04:58:27;;;;;;;;;;;;;;;-144.99;91.25;52248.34;5028494;28;20177;-62
2021/07/27 05:01:00;;;;;;;;;;;;;;;-144.99;91.08;52219.81;5029678;28;19955;-63
2021/07/27 05:03:26;;;;;;;;;;;;;;;-144.99;90.99;52256.50;5029492;28;20158;-69
2021/07/27 05:05:52;;;;;;;;;;;;;;;-144.99;90.70;52260.56;5026662;28;19925;-68
2021/07/27 05:08:19;;;;;;;;;;;;;;;-144.99;90.00;52256.50;5028651;28;19925;-69
2021/07/27 05:10:45;;;;;;;;;;;;;;;-144.99;89.80;52248.34;5030392;28;19925;-68
2021/07/27 05:13:11;;;;;;;;;;;;;;;-144.99;89.76;52254.47;5029535;28;19925;-68
2021/07/27 05:15:38;;;;;;;;;;;;;;;-144.99;89.39;52223.88;5027369;28;19971;-66
2021/07/27 05:18:06;;;;;;;;;;;;;;;-144.99;89.18;52252.44;3987420;28;10000691;-67
2021/07/27 05:20:32;;;;;;;;;;;;;;;-144.99;89.20;52219.81;5026897;28;20322;-67
2021/07/27 05:22:59;;;;;;;;;;;;;;;-144.99;89.16;52246.31;5020145;28;20303;-68
2021/07/27 05:25:25;;;;;;;;;;;;;;;-144.99;89.18;52219.81;5025662;28;20409;-67
2021/07/27 05:27:51;;;;;;;;;;;;;;;-144.99;88.23;52209.63;5024091;28;19952;-67
2021/07/27 05:30:18;;;;;;;;;;;;;;;-144.99;88.29;52232.03;5026329;28;19933;-67
2021/07/27 05:32:44;;;;;;;;;;;;;;;-144.99;88.42;52240.19;5024148;28;19958;-67
2021/07/27 05:35:12;;;;;;;;;;;;;;;-144.99;88.74;52256.50;5024358;28;19966;-67
2021/07/27 05:37:39;;;;;;;;;;;;;;;-144.99;88.62;52248.34;5024716;28;19932;-67
2021/07/27 05:40:06;;;;;;;;;;;;;;;-144.99;88.07;52244.28;5024788;28;19929;-68
2021/07/27 05:42:32;;;;;;;;;;;;;;;-144.99;88.13;52195.34;5020169;28;21205;-67
2021/07/27 05:44:58;;;;;;;;;;;;;;;-144.99;88.18;52248.34;5024249;28;19929;-68
2021/07/27 05:47:25;;;;;;;;;;;;;;;-144.99;88.58;52240.19;5026255;28;19929;-67
2021/07/27 05:49:51;;;;;;;;;;;;;;;-144.99;89.15;52215.75;5022487;28;20040;-67
2021/07/27 05:52:19;;;;;;;;;;;;;;;-144.99;89.39;52232.03;5028058;28;20446;-68
2021/07/27 05:54:45;;;;;;;;;;;;;;;-144.99;89.37;52217.78;5027787;28;20382;-67
2021/07/27 05:57:12;;;;;;;;;;;;;;;-144.99;89.84;52258.53;5027579;28;19929;-67
2021/07/27 05:59:38;;;;;;;;;;;;;;;-144.99;89.56;52244.28;5028224;28;20099;-68
2021/07/27 06:02:05;;;;;;;;;;;;;;;-144.99;89.84;52195.34;5024098;28;19929;-68
2021/07/27 06:04:31;;;;;;;;;;;;;;;-144.99;88.95;52211.66;5022472;28;19929;-68
2021/07/27 06:06:57;;;;;;;;;;;;;;;-144.99;88.74;52264.66;5021808;28;19933;-68
2021/07/27 06:09:25;;;;;;;;;;;;;;;-144.99;88.09;52207.59;5027467;28;19929;-68
2021/07/27 06:11:51;;;;;;;;;;;;;;;-144.99;87.33;52201.47;5027447;28;19937;-68
2021/07/27 06:14:18;;;;;;;;;;;;;;;-144.99;86.93;52232.03;5021792;28;19933;-69
2021/07/27 06:16:44;;;;;;;;;;;;;;;-144.99;86.22;52203.50;5027465;28;19929;-67
2021/07/27 06:19:11;;;;;;;;;;;;;;;-144.99;85.81;52211.66;5020456;28;19975;-68
2021/07/27 06:21:38;;;;;;;;;;;;;;;-144.99;85.30;52234.09;5028593;28;19925;-68
2021/07/27 06:24:05;;;;;;;;;;;;;;;-144.99;84.82;52207.59;5026619;28;20003;-67
2021/07/27 06:26:33;;;;;;;;;;;;;;;-144.99;84.44;52232.03;5028394;28;19936;-67
2021/07/27 06:29:01;;;;;;;;;;;;;;;-144.99;84.65;52227.97;5027683;28;19929;-67
2021/07/27 06:31:27;;;;;;;;;;;;;;;-144.99;84.43;52187.19;5021554;28;19929;-68
2021/07/27 06:33:53;;;;;;;;;;;;;;;-144.99;83.54;52170.91;5021298;28;20126;-67
2021/07/27 06:36:20;;;;;;;;;;;;;;;-144.99;82.95;52232.03;5024702;28;20311;-67
2021/07/27 06:38:46;;;;;;;;;;;;;;;-144.99;81.27;52201.47;5027299;28;20387;-67
2021/07/27 06:41:13;;;;;;;;;;;;;;;-144.99;80.55;52195.34;5027710;28;20300;-68
2021/07/27 06:43:41;;;;;;;;;;;;;;;-144.99;80.46;52189.25;5023372;28;20229;-67
2021/07/27 06:46:09;;;;;;;;;;;;;;;-144.99;79.48;52174.97;5027466;28;19933;-68
2021/07/27 06:48:35;;;;;;;;;;;;;;;-144.99;79.64;52203.50;5026409;28;19999;-68
2021/07/27 06:51:08;;;;;;;;;;;;;;;-144.99;78.75;52183.13;5026963;28;20739;-68
2021/07/27 06:53:34;;;;;;;;;;;;;;;-144.99;78.28;52211.66;5027449;28;19936;-68
2021/07/27 06:56:00;;;;;;;;;;;;;;;-144.99;78.10;52183.13;5027303;28;19929;-68
2021/07/27 06:58:27;;;;;;;;;;;;;;;-144.99;77.59;52185.16;5026057;28;20047;-68
2021/07/27 07:00:54;;;;;;;;;;;;;;;-144.99;77.04;52187.19;5026976;28;19929;-68
2021/07/27 07:03:22;;;;;;;;;;;;;;;-144.99;76.84;52195.34;5026440;28;19929;-69
2021/07/27 07:05:48;;;;;;;;;;;;;;;-144.99;75.85;52183.13;5026128;28;19929;-68
2021/07/27 07:08:14;;;;;;;;;;;;;;;-144.99;74.97;52211.66;5026996;28;19929;-68
2021/07/27 07:10:41;;;;;;;;;;;;;;;-144.99;75.16;52146.44;5026612;28;19960;-68
2021/07/27 07:13:07;;;;;;;;;;;;;;;-144.99;74.37;52215.75;5026654;28;19929;-68
2021/07/27 07:15:33;;;;;;;;;;;;;;;-144.99;74.16;52215.75;5022358;28;20029;-68
2021/07/27 07:18:01;;;;;;;;;;;;;;;-144.99;74.88;52179.06;5022024;28;19929;-69
2021/07/27 07:20:28;;;;;;;;;;;;;;;-144.99;75.42;52199.44;5026047;28;19929;-67
2021/07/27 07:22:54;;;;;;;;;;;;;;;-144.99;75.81;52227.97;5026719;28;19975;-67
2021/07/27 07:25:20;;;;;;;;;;;;;;;-144.99;75.88;52199.44;5027206;28;19929;-68
2021/07/27 07:27:47;;;;;;;;;;;;;;;-144.99;75.78;52197.41;5026973;28;19925;-68
2021/07/27 07:30:14;;;;;;;;;;;;;;;-144.99;75.84;52199.44;5026713;28;19925;-67
2021/07/27 07:32:40;;;;;;;;;;;;;;;-144.99;75.04;52170.91;5027191;28;20105;-68
2021/07/27 07:35:08;;;;;;;;;;;;;;;-144.99;75.05;52146.44;5024266;28;19937;-68
2021/07/27 07:37:34;;;;;;;;;;;;;;;-144.99;73.38;52179.06;5026129;28;20403;-68
2021/07/27 07:40:01;;;;;;;;;;;;;;;-144.99;72.40;52158.66;5026387;28;19936;-68
2021/07/27 07:42:27;;;;;;;;;;;;;;;-144.99;71.94;52166.81;5026583;28;19936;-68
2021/07/27 07:44:53;;;;;;;;;;;;;;;-144.99;71.42;52164.78;5025111;28;20457;-68
2021/07/27 07:47:20;;;;;;;;;;;;;;;-144.99;70.51;52191.28;5024871;28;20446;-68
2021/07/27 07:49:46;;;;;;;;;;;;;;;-144.99;71.55;52174.97;5026142;28;19925;-68
2021/07/27 07:52:14;;;;;;;;;;;;;;;-144.99;70.71;52174.97;5026219;28;20012;-68
2021/07/27 07:54:41;;;;;;;;;;;;;;;-144.99;69.41;52185.16;5026553;28;19932;-68
2021/07/27 07:57:07;;;;;;;;;;;;;;;-144.99;69.94;52207.59;5025397;28;19925;-68
2021/07/27 07:59:33;;;;;;;;;;;;;;;-144.99;69.79;52199.44;5019791;28;20016;-67
2021/07/27 08:02:00;;;;;;;;;;;;;;;-144.99;70.24;52183.13;5026001;28;20238;-69
2021/07/27 08:04:26;;;;;;;;;;;;;;;-144.99;69.72;52162.75;5047126;22;19929;-69
2021/07/27 08:06:53;;;;;;;;;;;;;;;-144.99;71.12;52148.47;5034412;28;19940;-70
2021/07/27 08:09:20;;;;;;;;;;;;;;;-144.99;69.04;52183.13;5043230;28;19924;-70
2021/07/27 08:11:47;;;;;;;;;;;;;;;-144.99;69.14;52191.28;5025058;28;19970;-69
2021/07/27 08:14:13;;;;;;;;;;;;;;;-144.99;69.12;52174.97;5024319;28;20455;-69
2021/07/27 08:16:40;;;;;;;;;;;;;;;-144.99;68.20;52174.97;5024798;28;19925;-70
2021/07/27 08:19:06;;;;;;;;;;;;;;;-144.99;67.89;52191.28;5016877;28;20405;-69
2021/07/27 08:21:32;;;;;;;;;;;;;;;-144.99;66.64;52142.38;5024044;28;20321;-69
2021/07/27 08:23:59;;;;;;;;;;;;;;;-144.99;67.07;52130.13;5024783;28;20265;-69
2021/07/27 08:26:27;;;;;;;;;;;;;;;-144.99;67.68;52205.53;5024343;28;19929;-71
2021/07/27 08:28:54;;;;;;;;;;;;;;;-144.99;67.97;52170.91;5017535;28;20396;-70
2021/07/27 08:31:20;;;;;;;;;;;;;;;-144.99;68.77;52168.84;5024329;28;19929;-70
2021/07/27 08:33:46;;;;;;;;;;;;;;;-144.99;69.73;52187.19;5022462;28;19926;-70
2021/07/27 08:36:13;;;;;;;;;;;;;;;-144.99;69.68;52199.44;5024866;28;19929;-70
2021/07/27 08:38:39;;;;;;;;;;;;;;;-144.99;70.31;52170.91;5024278;28;19952;-69
2021/07/27 08:41:06;;;;;;;;;;;;;;;-144.99;70.20;52187.19;5024437;28;19929;-69
2021/07/27 08:43:34;;;;;;;;;;;;;;;-144.99;69.66;52174.97;5021162;28;19972;-71
2021/07/27 08:46:01;;;;;;;;;;;;;;;-144.99;69.76;52191.28;5014714;28;19936;-71
2021/07/27 08:48:27;;;;;;;;;;;;;;;-144.99;69.48;52207.59;5026455;28;19929;-72
2021/07/27 08:50:54;;;;;;;;;;;;;;;-144.99;70.55;52193.31;5021113;28;19925;-71
2021/07/27 08:53:21;;;;;;;;;;;;;;;-144.99;70.85;52244.28;5024343;28;19925;-69
2021/07/27 08:55:47;;;;;;;;;;;;;;;-144.99;71.80;52223.88;5022621;28;20403;-71
2021/07/27 08:58:14;;;;;;;;;;;;;;;-144.99;72.08;52215.75;5023735;28;20459;-71
2021/07/27 09:00:42;;;;;;;;;;;;;;;-144.99;72.38;52199.44;5021775;28;19948;-70
2021/07/27 09:03:09;;;;;;;;;;;;;;;-144.99;72.44;52195.34;5022073;28;19926;-70
2021/07/27 09:05:35;;;;;;;;;;;;;;;-144.99;72.28;52203.50;5023641;28;19980;-69
2021/07/27 09:08:02;;;;;;;;;;;;;;;-144.99;71.66;52205.53;5022306;28;19940;-69
2021/07/27 09:10:29;;;;;;;;;;;;;;;-144.99;71.03;52187.19;5024896;28;20390;-70
2021/07/27 09:12:56;;;;;;;;;;;;;;;-144.99;70.53;52162.75;5025169;28;19929;-69
2021/07/27 09:15:23;;;;;;;;;;;;;;;-144.99;70.18;52207.59;5024605;28;20407;-72
2021/07/27 09:17:55;;;;;;;;;;;;;;;-144.99;69.61;52199.44;5025611;28;20036;-72
2021/07/27 09:20:24;;;;;;;;;;;;;;;-144.99;69.61;52174.97;5022675;28;19931;-71
2021/07/27 09:22:51;;;;;;;;;;;;;;;-144.99;69.75;52219.81;5028375;28;19929;-72
2021/07/27 09:25:18;;;;;;;;;;;;;;;-144.99;70.24;52160.72;5028985;28;20287;-73
2021/07/27 09:27:44;;;;;;;;;;;;;;;-144.99;69.00;52162.75;5029569;28;19963;-72
2021/07/27 09:30:21;;;;;;;;;;;;;;;-144.99;68.87;52138.28;5028122;28;19933;-71
2021/07/27 09:32:48;;;;;;;;;;;;;;;-144.99;66.50;52174.97;5026908;28;19933;-73
2021/07/27 09:35:15;;;;;;;;;;;;;;;-144.99;66.06;52201.47;5029147;28;19986;-72
2021/07/27 09:37:42;;;;;;;;;;;;;;;-144.99;66.95;52166.81;5029490;28;19936;-72
2021/07/27 09:40:09;;;;;;;;;;;;;;;-144.99;67.89;52191.28;5029383;28;20311;-71
2021/07/27 09:42:36;;;;;;;;;;;;;;;-144.99;80.50;52205.53;5028801;28;19929;-70
2021/07/27 09:45:03;;;;;;;;;;;;;;;-144.99;83.07;52227.97;5022152;28;19933;-73
2021/07/27 09:47:30;;;;;;;;;;;;;;;-144.99;84.47;52219.81;5027971;28;19929;-73
2021/07/27 09:49:57;;;;;;;;;;;;;;;-144.99;84.74;52207.59;5028147;28;19944;-73
2021/07/27 09:52:26;;;;;;;;;;;;;;;-144.99;86.65;52207.59;5029082;28;19932;-74
2021/07/27 09:54:54;;;;;;;;;;;;;;;-144.99;87.08;52232.03;5028808;28;19937;-75
2021/07/27 09:57:20;;;;;;;;;;;;;;;-144.99;87.26;52191.28;5028494;28;20037;-74
2021/07/27 09:59:48;;;;;;;;;;;;;;;-144.99;85.83;52154.59;5028399;28;19936;-74
2021/07/27 10:02:17;;;;;;;;;;;;;;;-144.99;86.84;52154.59;5026462;28;19944;-74
2021/07/27 10:04:47;;;;;;;;;;;;;;;-144.99;83.12;52158.66;5028551;28;19948;-74
2021/07/27 10:07:13;;;;;;;;;;;;;;;-144.99;79.30;52181.09;5026857;28;20437;-74
2021/07/27 10:09:41;;;;;;;;;;;;;;;-144.99;80.12;52195.34;5029213;28;20297;-74
2021/07/27 10:12:08;;;;;;;;;;;;;;;-144.99;79.56;52170.91;5027030;28;20007;-73
2021/07/27 10:14:38;;;;;;;;;;;;;;;-144.99;79.17;52170.91;5028392;28;19931;-72
2021/07/27 10:17:05;;;;;;;;;;;;;;;-144.99;77.12;52174.97;5023820;28;19925;-72
2021/07/27 10:19:37;;;;;;;;;;;;;;;-144.99;77.91;52146.44;5028057;28;19936;-74
2021/07/27 10:22:05;;;;;;;;;;;;;;;-144.99;76.34;52146.44;5028144;28;20310;-72
2021/07/27 10:24:35;;;;;;;;;;;;;;;-144.99;74.09;52166.81;5027745;28;20051;-73
2021/07/27 10:27:07;;;;;;;;;;;;;;;-144.99;75.01;52162.75;5028563;28;19936;-72
2021/07/27 10:29:34;;;;;;;;;;;;;;;-144.99;73.86;52150.53;5027614;28;19983;-73
2021/07/27 10:32:10;;;;;;;;;;;;;;;-144.99;72.95;52121.97;5028560;28;19929;-72
2021/07/27 10:34:40;;;;;;;;;;;;;;;-144.99;69.26;52130.13;5026713;28;19935;-70
2021/07/27 10:37:07;;;;;;;;;;;;;;;-144.99;69.15;52166.81;5027788;28;19929;-72
2021/07/27 10:39:34;;;;;;;;;;;;;;;-144.99;69.69;52179.06;5020696;28;19965;-73
2021/07/27 10:42:08;;;;;;;;;;;;;;;-144.99;67.96;52166.81;5028060;28;19929;-73
2021/07/27 10:44:36;;;;;;;;;;;;;;;-144.99;69.56;52097.53;5027557;28;19925;-71
2021/07/27 10:47:03;;;;;;;;;;;;;;;-144.99;68.73;52191.28;5027681;28;19929;-71
2021/07/27 10:49:29;;;;;;;;;;;;;;;-144.99;67.52;52089.38;5027467;28;19929;-71
2021/07/27 10:51:59;;;;;;;;;;;;;;;-144.99;65.37;52093.44;5021521;28;20277;-71
2021/07/27 10:54:28;;;;;;;;;;;;;;;-144.99;65.05;52069.00;5020697;28;19929;-69
2021/07/27 10:56:58;;;;;;;;;;;;;;;-144.99;63.35;52073.06;5024983;28;20409;-73
2021/07/27 10:59:27;;;;;;;;;;;;;;;-144.99;62.94;52093.44;5027081;28;19965;-72
2021/07/27 11:01:54;;;;;;;;;;;;;;;-144.99;63.20;52117.91;5025253;28;20491;-70
2021/07/27 11:04:26;;;;;;;;;;;;;;;-144.99;64.32;52121.97;5024420;28;20292;-72
2021/07/27 11:06:52;;;;;;;;;;;;;;;-144.99;63.98;52152.56;5026358;28;20018;-69
2021/07/27 11:09:19;;;;;;;;;;;;;;;-144.99;64.71;52154.59;5026723;28;19929;-69
2021/07/27 11:11:46;;;;;;;;;;;;;;;-144.99;66.63;52227.97;5026019;28;20363;-70
2021/07/27 11:14:18;;;;;;;;;;;;;;;-144.99;67.95;52179.06;5027419;28;19936;-72
2021/07/27 11:16:46;;;;;;;;;;;;;;;-144.99;66.96;52156.63;5025786;28;19929;-73
2021/07/27 11:19:26;;;;;;;;;;;;;;;-144.99;68.21;52203.50;5025957;28;20317;-73
2021/07/27 11:21:53;;;;;;;;;;;;;;;-144.99;69.32;52195.34;5021014;28;20290;-74
2021/07/27 11:24:20;;;;;;;;;;;;;;;-144.99;68.78;52166.81;5027062;28;19929;-73
2021/07/27 11:26:50;;;;;;;;;;;;;;;-144.99;68.93;52154.59;5027338;28;20012;-73
2021/07/27 11:29:17;;;;;;;;;;;;;;;-144.99;69.68;52166.81;5026798;28;19925;-69
2021/07/27 11:31:49;;;;;;;;;;;;;;;-144.99;69.37;52179.06;5021031;28;20301;-71
2021/07/27 11:34:26;;;;;;;;;;;;;;;-144.99;69.94;52154.59;5024856;28;19940;-71
2021/07/27 11:36:53;;;;;;;;;;;;;;;-144.99;68.68;52117.91;5026923;28;19932;-70
2021/07/27 11:39:20;;;;;;;;;;;;;;;-144.99;68.85;52124.03;5022907;28;19976;-71
2021/07/27 11:41:57;;;;;;;;;;;;;;;-144.99;66.21;52052.69;5027054;28;19935;-71
2021/07/27 11:44:23;;;;;;;;;;;;;;;-144.99;64.39;52077.16;5024317;28;20410;-71
2021/07/27 11:46:52;;;;;;;;;;;;;;;-144.99;63.33;52101.59;5025708;28;19936;-71
2021/07/27 11:49:19;;;;;;;;;;;;;;;-144.99;61.15;52064.91;5026662;28;20170;-71
2021/07/27 11:51:45;;;;;;;;;;;;;;;-144.99;60.80;52097.53;5026492;28;20036;-70
2021/07/27 11:54:11;;;;;;;;;;;;;;;-144.99;61.21;52093.44;5018745;28;19947;-70
2021/07/27 11:56:45;;;;;;;;;;;;;;;-144.99;61.48;52142.38;5026141;28;19953;-70
2021/07/27 11:59:11;;;;;;;;;;;;;;;-144.99;63.31;52162.75;5022540;28;19932;-70
2021/07/27 12:01:38;;;;;;;;;;;;;;;-144.99;62.95;52154.59;5022537;28;19952;-71
2021/07/27 12:04:06;;;;;;;;;;;;;;;-144.99;63.81;52170.91;5026218;28;19957;-68
2021/07/27 12:06:32;;;;;;;;;;;;;;;-144.99;62.94;52160.72;5024179;28;20243;-70
2021/07/27 12:08:59;;;;;;;;;;;;;;;-144.99;61.93;52119.94;5026449;28;20060;-69
2021/07/27 12:11:25;;;;;;;;;;;;;;;-144.99;62.65;52154.59;5026436;28;20340;-69
2021/07/27 12:13:52;;;;;;;;;;;;;;;-144.99;61.52;52121.97;5024176;28;19989;-69
2021/07/27 12:16:18;;;;;;;;;;;;;;;-144.99;61.29;52152.56;5026817;28;19929;-70
2021/07/27 12:18:44;;;;;;;;;;;;;;;-144.99;60.96;52121.97;5026643;28;20042;-69
2021/07/27 12:21:12;;;;;;;;;;;;;;;-144.99;61.50;52150.53;5026017;28;19981;-68
2021/07/27 12:23:40;;;;;;;;;;;;;;;-144.99;61.81;52174.97;5025474;28;20400;-69
2021/07/27 12:26:07;;;;;;;;;;;;;;;-144.99;62.87;52138.28;5022850;28;19930;-68
2021/07/27 12:28:33;;;;;;;;;;;;;;;-144.99;62.27;52121.97;5026320;28;19929;-69
2021/07/27 12:31:00;;;;;;;;;;;;;;;-144.99;62.95;52158.66;5026091;28;20406;-70
2021/07/27 12:33:26;;;;;;;;;;;;;;;-144.99;64.57;52154.59;5026328;28;19925;-70
2021/07/27 12:35:52;;;;;;;;;;;;;;;-144.99;64.37;52097.53;5026919;28;19948;-69
2021/07/27 12:38:21;;;;;;;;;;;;;;;-144.99;64.05;52069.00;5024272;28;20319;-70
2021/07/27 12:40:47;;;;;;;;;;;;;;;-144.99;62.86;52126.06;5016567;28;19990;-70
2021/07/27 12:43:13;;;;;;;;;;;;;;;-144.99;62.62;52115.88;5025724;28;19933;-69
2021/07/27 12:45:43;;;;;;;;;;;;;;;-144.99;62.15;52095.50;5024184;28;19929;-69